Aviation Digital Data Service (ADDS)

Output produced by METARs form (1112 UTC 27 June 2016)
found at http://aviationweather.gov/adds/metars/
 
METAR text: KBFM 271053Z AUTO 16004KT 10SM CLR 26/26 A3008 RMK AO2 SLP186 T02610256
Conditions at: KBFM (MOBILE/BROOKLEY , AL, US) observed 1053 UTC 27 June 2016
Temperature: 26.1°C (79°F)
Dewpoint: 25.6°C (78°F) [RH = 97%]
Pressure (altimeter): 30.08 inches Hg (1018.7 mb)
[Sea-level pressure: 1018.6 mb]
Winds: from the SSE (160 degrees) at 5 MPH (4 knots; 2.1 m/s)
Visibility: 10 or more miles (16+ km)
Ceiling: at least 12,000 feet AGL
Clouds: sky clear below 12,000 feet AGL
Weather: automated observation with no human augmentation;
there may or may not be significant weather present at this time